TAF Text Data
IDs:
Format:
Raw Decoded Include METAR

Data at: 2126 UTC 01 Dec 2021

KPGD 011739Z 0118/0218 13009KT P6SM SCT050 SCT250
  FM012100 25006KT P6SM FEW040 SCT250
  FM020100 VRB03KT P6SM FEW250
  FM021500 35006KT P6SM SKC